CDT,Max TemperatureF,Mean TemperatureF,Min TemperatureF,Max Dew PointF,MeanDew PointF,Min DewpointF,Max Humidity, Mean Humidity, Min Humidity, Max Sea Level PressureIn, Mean Sea Level PressureIn, Min Sea Level PressureIn, Max VisibilityMiles, Mean VisibilityMiles, Min VisibilityMiles, Max Wind SpeedMPH, Mean Wind SpeedMPH, Max Gust SpeedMPH,PrecipitationIn, CloudCover, Events, WindDirDegrees
2012-10-1,75,60,44,50,40,35,82,54,29,29.99,29.94,29.87,10,8,5,26,7,33,0.00,1,,343
2012-10-2,75,56,36,36,30,20,79,45,13,30.00,29.93,29.84,10,9,6,9,5,,0.00,0,,199
2012-10-3,82,60,37,41,32,26,76,41,15,29.93,29.84,29.74,10,9,3,23,9,40,0.00,0,,172
2012-10-4,60,48,39,42,33,28,71,54,33,30.33,30.19,29.97,10,10,9,28,18,37,0.00,3,,324
2012-10-5,54,44,33,28,24,20,75,52,26,30.37,30.31,30.25,10,10,10,16,9,,0.00,0,,311
2012-10-6,50,40,30,24,22,19,67,52,35,30.39,30.34,30.30,10,10,7,21,12,25,0.00,2,,311
2012-10-7,60,39,19,27,21,15,81,52,23,30.31,30.17,29.99,10,10,10,21,8,30,0.00,0,,218
2012-10-8,77,58,42,34,30,25,70,42,15,29.97,29.84,29.72,10,10,6,26,13,34,0.00,1,,199
2012-10-9,57,44,30,43,31,21,71,55,29,30.15,29.95,29.78,10,9,4,23,10,31,0.00,1,Rain,332
2012-10-10,66,48,30,29,25,22,73,48,25,30.24,30.13,30.02,10,10,7,16,9,22,0.00,0,,218
2012-10-11,63,51,36,33,29,24,62,46,31,30.38,30.13,29.98,10,10,9,24,12,31,0.00,0,,351
2012-10-12,61,44,28,41,26,18,69,51,21,30.40,30.25,29.99,10,10,9,22,11,30,0.00,4,,134
2012-10-13,75,64,53,63,56,44,94,83,64,29.96,29.75,29.59,10,6,1,21,15,25,0.55,5,Rain-Thunderstorm,178
2012-10-14,68,56,43,58,43,35,88,62,32,29.97,29.82,29.60,10,8,5,22,16,30,0.02,2,Rain-Thunderstorm,323
2012-10-15,75,54,33,46,39,30,93,65,29,29.99,29.90,29.72,10,8,2,14,4,18,0.00,0,,162
2012-10-16,81,62,45,48,44,41,86,57,27,29.68,29.49,29.34,10,9,4,16,8,21,0.00,0,,211
2012-10-17,66,56,48,51,37,21,84,46,27,29.55,29.44,29.26,10,9,6,31,15,41,0.03,4,Rain,284
2012-10-18,51,48,45,43,37,20,87,70,29,29.60,29.51,29.45,10,6,2,39,25,53,0.39,7,Rain,300
2012-10-19,46,44,37,41,39,35,93,81,76,29.83,29.73,29.60,10,9,4,33,23,47,0.05,8,Rain,321
2012-10-20,66,48,33,45,38,30,97,79,45,29.83,29.78,29.69,10,6,0,14,5,,0.01,1,Fog,152
2012-10-21,81,60,41,58,48,38,89,67,46,29.78,29.73,29.69,10,10,9,17,8,,0.00,2,,149
2012-10-22,64,60,55,55,52,48,84,75,67,29.82,29.78,29.73,10,6,3,20,14,,0.02,8,Rain,351
2012-10-23,70,60,51,59,54,48,97,88,68,29.77,29.73,29.63,5,2,1,9,7,,0.01,6,,186
2012-10-24,57,52,46,55,50,40,96,91,76,29.80,29.77,29.74,10,3,0,24,13,30,0.01,8,Fog-Rain,357
2012-10-25,46,42,34,40,35,26,93,81,65,30.36,29.95,29.70,10,6,1,30,23,39,0.63,8,Rain-Thunderstorm,334
2012-10-26,42,37,32,27,26,25,75,64,53,30.52,30.46,30.35,10,10,10,13,10,,0.00,7,,311
2012-10-27,46,35,24,30,25,20,85,68,46,30.43,30.36,30.27,10,9,7,10,3,,0.00,2,,148
2012-10-28,54,42,32,31,30,27,85,63,41,30.33,30.26,30.20,10,9,6,16,8,26,0.00,5,,147
2012-10-29,59,50,39,32,30,29,68,53,36,30.22,30.16,30.09,10,10,9,20,14,29,0.00,3,,142
2012-10-30,55,45,34,32,28,25,76,59,31,30.12,30.08,30.04,10,10,8,10,5,,0.00,3,,84
2012-10-31,61,43,26,33,28,22,93,65,33,30.09,30.04,29.97,9,6,2,7,3,,0.00,0,,230